Time;durP1;ratioP1;P1;durP2;ratioP2;P2;SDS_P1;SDS_P2;PMS_P1;PMS_P2;Temp;Humidity;BMP_temperature;BMP_pressure;BME280_temperature;BME280_humidity;BME280_pressure;Samples;Min_cycle;Max_cycle;Signal;HPM_P1;HPM_P2
2022/08/26 00:01:40;;;;;;;9.95;7.75;;;;;;;-148.33;100.00;65374.31;5007926;28;20403;-65
2022/08/26 00:04:10;;;;;;;11.15;7.53;;;;;;;-148.33;100.00;65374.31;5006882;28;20041;-71
2022/08/26 00:06:37;;;;;;;10.10;7.33;;;;;;;-148.33;100.00;65374.31;5008565;28;20414;-65
2022/08/26 00:09:08;;;;;;;9.00;6.88;;;;;;;-148.33;100.00;65374.31;5010927;28;20041;-65
2022/08/26 00:11:35;;;;;;;10.10;7.18;;;;;;;-148.33;100.00;65374.31;5011572;28;20076;-69
2022/08/26 00:14:02;;;;;;;9.95;7.53;;;;;;;-148.33;100.00;65374.31;5012228;28;20046;-65
2022/08/26 00:16:30;;;;;;;10.07;7.65;;;;;;;-148.33;100.00;65374.31;5011947;28;20073;-66
2022/08/26 00:18:58;;;;;;;18.30;12.40;;;;;;;-148.33;100.00;65374.31;5013505;28;20038;-67
2022/08/26 00:21:25;;;;;;;11.43;7.88;;;;;;;-148.33;100.00;65374.31;5013154;28;20038;-64
2022/08/26 00:23:53;;;;;;;11.00;7.93;;;;;;;-148.33;100.00;65374.31;5011834;28;20041;-68
2022/08/26 00:26:19;;;;;;;10.13;7.25;;;;;;;-148.33;100.00;65374.31;5012294;28;20040;-63
2022/08/26 00:28:46;;;;;;;10.27;7.88;;;;;;;-148.33;100.00;65374.31;4991742;28;20054;-65
2022/08/26 00:31:13;;;;;;;12.03;8.00;;;;;;;-148.33;100.00;65374.31;5012074;28;20049;-67
2022/08/26 00:33:40;;;;;;;10.18;7.65;;;;;;;-148.33;100.00;65374.31;5011375;28;20426;-65
2022/08/26 00:36:08;;;;;;;11.32;8.25;;;;;;;-148.33;100.00;65374.31;5011913;28;20041;-64
2022/08/26 00:38:45;;;;;;;11.45;7.65;;;;;;;-148.33;100.00;65374.31;5010632;28;21688;-71
2022/08/26 00:41:12;;;;;;;10.43;7.63;;;;;;;-148.33;100.00;65374.31;5043569;28;20041;-69
2022/08/26 00:43:39;;;;;;;9.87;7.17;;;;;;;-148.33;100.00;65374.31;5028684;28;20038;-65
2022/08/26 00:46:18;;;;;;;11.50;8.00;;;;;;;-148.33;100.00;65374.31;5012243;28;20441;-65
2022/08/26 00:48:48;;;;;;;10.73;7.88;;;;;;;-148.33;100.00;65374.31;5011655;28;21689;-64
2022/08/26 00:51:18;;;;;;;13.38;10.23;;;;;;;-148.33;100.00;65374.31;5012687;28;20048;-66
2022/08/26 00:53:57;;;;;;;23.05;15.13;;;;;;;-148.33;100.00;65374.31;4999160;28;20392;-64
2022/08/26 00:56:33;;;;;;;13.67;8.13;;;;;;;-148.33;100.00;65374.31;5010171;28;20052;-66
2022/08/26 00:59:05;;;;;;;11.60;8.00;;;;;;;-148.33;100.00;65374.31;5011967;28;20050;-65
2022/08/26 01:01:33;;;;;;;12.13;8.48;;;;;;;-148.33;100.00;65374.31;5010483;28;20046;-65
2022/08/26 01:04:00;;;;;;;11.88;8.85;;;;;;;-148.33;100.00;65374.31;5009114;28;20046;-69
2022/08/26 01:06:28;;;;;;;12.55;8.07;;;;;;;-148.33;100.00;65374.31;5010921;28;20057;-69
2022/08/26 01:08:56;;;;;;;10.90;8.03;;;;;;;-148.33;100.00;65374.31;5011545;28;20042;-70
2022/08/26 01:11:24;;;;;;;11.52;7.82;;;;;;;-148.33;100.00;65374.31;5010330;28;20520;-65
2022/08/26 01:13:54;;;;;;;11.77;8.23;;;;;;;-148.33;100.00;65374.31;5010904;28;20537;-68
2022/08/26 01:16:24;;;;;;;10.82;7.70;;;;;;;-148.33;100.00;65374.31;5010294;28;20049;-67
2022/08/26 01:18:55;;;;;;;9.73;7.78;;;;;;;-148.33;100.00;65374.31;5010880;28;20040;-68
2022/08/26 01:21:58;;;;;;;11.73;7.93;;;;;;;-148.33;100.00;65374.31;5010415;28;20509;-64
2022/08/26 01:24:27;;;;;;;11.55;8.27;;;;;;;-148.33;100.00;65374.31;5010070;28;20054;-73
2022/08/26 01:27:04;;;;;;;12.45;9.02;;;;;;;-148.33;100.00;65374.31;5010550;28;20060;-65
2022/08/26 01:29:32;;;;;;;13.68;8.73;;;;;;;-148.33;100.00;65374.31;5009985;28;20080;-68
2022/08/26 01:31:59;;;;;;;12.15;8.43;;;;;;;-148.33;100.00;65374.31;5010176;28;20250;-67
2022/08/26 01:34:35;;;;;;;12.07;8.07;;;;;;;-148.33;100.00;65374.31;5009627;28;20099;-76
2022/08/26 01:37:14;;;;;;;15.05;9.50;;;;;;;-148.33;100.00;65374.31;5010227;28;20042;-68
2022/08/26 01:39:43;;;;;;;13.88;9.32;;;;;;;-148.33;100.00;65374.31;5009688;28;20049;-67
2022/08/26 01:42:13;;;;;;;13.85;8.98;;;;;;;-148.33;100.00;65374.31;5010256;28;20056;-69
2022/08/26 01:44:53;;;;;;;12.20;8.98;;;;;;;-148.33;100.00;65374.31;5009611;28;20408;-65
2022/08/26 01:47:24;;;;;;;12.17;9.30;;;;;;;-148.33;100.00;65374.31;5009980;28;20042;-64
2022/08/26 01:49:54;;;;;;;13.25;8.90;;;;;;;-148.33;100.00;65374.31;5010246;28;20040;-64
2022/08/26 01:52:26;;;;;;;14.07;9.05;;;;;;;-148.33;100.00;65374.31;5009753;28;20054;-68
2022/08/26 01:54:55;;;;;;;12.02;9.00;;;;;;;-148.33;100.00;65374.31;5009538;28;20446;-66
2022/08/26 01:57:23;;;;;;;12.65;8.88;;;;;;;-148.33;100.00;65374.31;5009221;28;20120;-68
2022/08/26 01:59:51;;;;;;;14.23;8.87;;;;;;;-148.33;100.00;65374.31;5009957;28;20441;-68
2022/08/26 02:02:19;;;;;;;16.58;9.00;;;;;;;-148.33;100.00;65374.31;5009962;28;20567;-67
2022/08/26 02:04:51;;;;;;;12.93;8.80;;;;;;;-148.33;100.00;65374.31;5009296;28;20046;-67
2022/08/26 02:07:20;;;;;;;11.68;8.68;;;;;;;-148.33;100.00;65374.31;5010644;28;20042;-63
2022/08/26 02:09:47;;;;;;;13.48;9.00;;;;;;;-148.33;100.00;65374.31;5010587;28;20045;-64
2022/08/26 02:12:17;;;;;;;12.23;9.00;;;;;;;-148.33;100.00;65374.31;5010550;28;20479;-65
2022/08/26 02:14:50;;;;;;;13.60;9.98;;;;;;;-148.33;100.00;65374.31;5009481;28;20410;-64
2022/08/26 02:17:20;;;;;;;12.20;8.93;;;;;;;-148.33;100.00;65374.31;5010261;28;20635;-68
2022/08/26 02:19:49;;;;;;;13.77;9.00;;;;;;;-148.33;100.00;65374.31;5009211;28;21401;-70
2022/08/26 02:22:21;;;;;;;11.90;8.77;;;;;;;-148.33;100.00;65374.31;5009973;28;20115;-65
2022/08/26 02:24:51;;;;;;;12.53;8.50;;;;;;;-148.33;100.00;65374.31;5009155;28;20859;-65
2022/08/26 02:27:27;;;;;;;13.98;9.05;;;;;;;-148.33;100.00;65374.31;5009104;28;20038;-66
2022/08/26 02:30:17;;;;;;;14.30;9.43;;;;;;;-148.33;100.00;65374.31;5009455;28;20052;-72
2022/08/26 02:32:45;;;;;;;12.43;8.85;;;;;;;-148.33;100.00;65374.31;5007792;28;20776;-67
2022/08/26 02:35:17;;;;;;;12.55;8.93;;;;;;;-148.33;100.00;65374.31;5009292;28;20042;-65
2022/08/26 02:37:46;;;;;;;12.27;9.10;;;;;;;-148.33;100.00;65374.31;5007991;28;20633;-65
2022/08/26 02:40:18;;;;;;;13.15;9.43;;;;;;;-148.33;100.00;65374.31;5009390;28;20038;-65
2022/08/26 02:42:47;;;;;;;12.82;9.00;;;;;;;-148.33;100.00;65374.31;5008034;28;20640;-76
2022/08/26 02:45:14;;;;;;;12.65;8.73;;;;;;;-148.33;100.00;65374.31;5009232;28;20042;-72
2022/08/26 02:47:50;;;;;;;12.48;8.80;;;;;;;-148.33;100.00;65374.31;5008005;28;21597;-67
2022/08/26 02:50:18;;;;;;;11.07;8.13;;;;;;;-148.33;100.00;65374.31;5009546;28;20041;-65
2022/08/26 02:52:45;;;;;;;12.88;8.68;;;;;;;-148.33;100.00;65374.31;5008702;28;21603;-68
2022/08/26 02:55:11;;;;;;;12.75;8.38;;;;;;;-148.33;100.00;65374.31;5009849;28;20034;-66
2022/08/26 02:57:38;;;;;;;12.20;8.57;;;;;;;-148.33;100.00;65374.31;5009459;28;20057;-64
2022/08/26 03:00:08;;;;;;;12.45;8.30;;;;;;;-148.33;100.00;65374.31;5009452;28;20092;-71
2022/08/26 03:02:36;;;;;;;12.33;8.23;;;;;;;-148.33;100.00;65374.31;5009065;28;20052;-71
2022/08/26 03:05:04;;;;;;;12.98;9.05;;;;;;;-148.33;100.00;65374.31;5009420;28;20046;-70
2022/08/26 03:07:30;;;;;;;12.05;8.60;;;;;;;-148.33;100.00;65374.31;5009425;28;20049;-70
2022/08/26 03:09:58;;;;;;;12.30;8.85;;;;;;;-148.33;100.00;65374.31;5009433;28;20046;-64
2022/08/26 03:12:24;;;;;;;12.02;8.43;;;;;;;-148.33;100.00;65374.31;5008794;28;20050;-64
2022/08/26 03:14:52;;;;;;;12.93;9.00;;;;;;;-148.33;100.00;65374.31;5009001;28;20334;-66
2022/08/26 03:17:19;;;;;;;13.55;8.70;;;;;;;-148.33;100.00;65374.31;5008500;28;20602;-68
2022/08/26 03:19:46;;;;;;;13.40;8.38;;;;;;;-148.33;100.00;65374.31;5008796;28;20084;-66
2022/08/26 03:22:18;;;;;;;13.63;8.85;;;;;;;-148.33;100.00;65374.31;5008651;28;20410;-62
2022/08/26 03:24:46;;;;;;;12.40;8.73;;;;;;;-148.33;100.00;65374.31;5008787;28;20052;-65
2022/08/26 03:27:12;;;;;;;13.07;8.60;;;;;;;-148.33;100.00;65374.31;5009149;28;20072;-68
2022/08/26 03:32:25;;;;;;;11.50;8.32;;;;;;;-148.33;100.00;65374.31;5009335;28;20422;-71
2022/08/26 03:34:53;;;;;;;11.27;8.00;;;;;;;-148.33;100.00;65374.31;5007630;28;20042;-65
2022/08/26 03:37:20;;;;;;;10.90;8.00;;;;;;;-148.33;100.00;65374.31;5007714;28;20052;-67
2022/08/26 03:39:47;;;;;;;12.83;8.70;;;;;;;-148.33;100.00;65374.31;5008958;28;20049;-65
2022/08/26 03:42:15;;;;;;;11.48;8.38;;;;;;;-148.33;100.00;65374.31;5009407;28;20447;-69
2022/08/26 03:44:42;;;;;;;11.02;8.32;;;;;;;-148.33;100.00;65374.31;5011879;28;20405;-68
2022/08/26 03:47:09;;;;;;;11.85;8.55;;;;;;;-148.33;100.00;65374.31;5012734;28;20612;-69
2022/08/26 03:49:36;;;;;;;11.70;8.30;;;;;;;-148.33;100.00;65374.31;5011701;28;20042;-69
2022/08/26 03:52:03;;;;;;;12.47;8.50;;;;;;;-148.33;100.00;65374.31;5012226;28;20425;-64
2022/08/26 03:54:31;;;;;;;12.55;8.20;;;;;;;-148.33;100.00;65374.31;5011399;28;20068;-65
2022/08/26 03:56:58;;;;;;;11.95;8.43;;;;;;;-148.33;100.00;65374.31;5011870;28;20046;-65
2022/08/26 03:59:25;;;;;;;12.38;9.13;;;;;;;-148.33;100.00;65374.31;5011899;28;20038;-67
2022/08/26 04:01:53;;;;;;;14.55;9.20;;;;;;;-148.33;100.00;65374.31;5011604;28;20392;-73
2022/08/26 04:04:20;;;;;;;12.83;9.37;;;;;;;-148.33;100.00;65374.31;5011225;28;20065;-65
2022/08/26 04:06:56;;;;;;;12.55;9.05;;;;;;;-148.33;100.00;65374.31;5011403;28;20050;-67
2022/08/26 04:09:23;;;;;;;12.40;8.70;;;;;;;-148.33;100.00;65374.31;5011355;28;20072;-72
2022/08/26 04:11:50;;;;;;;13.57;8.15;;;;;;;-148.33;100.00;65374.31;5010089;28;20038;-65
2022/08/26 04:14:20;;;;;;;11.68;7.95;;;;;;;-148.33;100.00;65374.31;5010246;28;20532;-65
2022/08/26 04:16:48;;;;;;;11.30;8.13;;;;;;;-148.33;100.00;65374.31;5010768;28;21642;-65
2022/08/26 04:19:16;;;;;;;13.10;8.52;;;;;;;-148.33;100.00;65374.31;5012051;28;20387;-65
2022/08/26 04:21:44;;;;;;;11.60;8.02;;;;;;;-148.33;100.00;65374.31;5009495;28;20048;-65
2022/08/26 04:24:14;;;;;;;12.27;8.27;;;;;;;-148.33;100.00;65374.31;5012313;28;20042;-68
2022/08/26 04:26:42;;;;;;;11.95;8.48;;;;;;;-148.33;100.00;65374.31;5011182;28;20052;-65
2022/08/26 04:29:16;;;;;;;11.23;8.17;;;;;;;-148.33;100.00;65374.31;5010244;28;20037;-65
2022/08/26 04:31:43;;;;;;;12.93;8.88;;;;;;;-148.33;100.00;65374.31;5010195;28;21640;-69
2022/08/26 04:34:10;;;;;;;11.68;8.25;;;;;;;-148.33;100.00;65374.31;5009941;28;20596;-71
2022/08/26 04:36:40;;;;;;;11.65;8.30;;;;;;;-148.33;100.00;65374.31;5011349;28;20435;-68
2022/08/26 04:39:10;;;;;;;10.93;7.70;;;;;;;-148.33;100.00;65374.31;5012059;28;20046;-66
2022/08/26 04:41:38;;;;;;;11.03;7.70;;;;;;;-148.33;100.00;65374.31;5010690;28;20084;-78
2022/08/26 04:44:05;;;;;;;10.80;7.88;;;;;;;-148.33;100.00;65374.31;5011228;28;20067;-73
2022/08/26 04:46:33;;;;;;;12.20;8.65;;;;;;;-148.33;100.00;65374.31;5010626;28;20556;-68
2022/08/26 04:49:01;;;;;;;11.85;8.43;;;;;;;-148.33;100.00;65374.31;5010920;28;20046;-70
2022/08/26 04:51:27;;;;;;;13.95;8.70;;;;;;;-148.33;100.00;65374.31;5010613;28;20042;-72
2022/08/26 04:53:56;;;;;;;11.87;7.87;;;;;;;-148.33;100.00;65374.31;5010050;28;20041;-65
2022/08/26 04:56:25;;;;;;;11.60;8.13;;;;;;;-148.33;100.00;65374.31;5010720;28;20064;-65
2022/08/26 04:58:52;;;;;;;12.77;8.30;;;;;;;-148.33;100.00;65374.31;5010554;28;20049;-65
2022/08/26 05:01:20;;;;;;;11.52;8.05;;;;;;;-148.33;100.00;65374.31;5010636;28;20046;-63
2022/08/26 05:03:48;;;;;;;11.00;8.07;;;;;;;-148.33;100.00;65374.31;5010614;28;20046;-65
2022/08/26 05:06:15;;;;;;;14.77;8.70;;;;;;;-148.33;100.00;65374.31;5011280;28;20075;-65
2022/08/26 05:08:44;;;;;;;11.55;8.38;;;;;;;-148.33;100.00;65374.31;5009704;28;21738;-65
2022/08/26 05:11:11;;;;;;;12.32;9.10;;;;;;;-148.33;100.00;65374.31;5010513;28;20046;-66
2022/08/26 05:13:39;;;;;;;12.10;8.90;;;;;;;-148.33;100.00;65374.31;5010057;28;20050;-69
2022/08/26 05:16:09;;;;;;;12.38;8.57;;;;;;;-148.33;100.00;65374.31;5010671;28;20041;-69
2022/08/26 05:18:38;;;;;;;13.37;9.13;;;;;;;-148.33;100.00;65374.31;5010175;28;20707;-65
2022/08/26 05:21:06;;;;;;;14.32;8.80;;;;;;;-148.33;100.00;65374.31;5010258;28;20044;-66
2022/08/26 05:23:35;;;;;;;14.85;8.80;;;;;;;-148.33;100.00;65374.31;5010007;28;20057;-66
2022/08/26 05:26:06;;;;;;;13.73;9.18;;;;;;;-148.33;100.00;65374.31;5010072;28;20561;-66
2022/08/26 05:28:34;;;;;;;13.48;8.57;;;;;;;-148.33;100.00;65374.31;5009715;28;20050;-65
2022/08/26 05:31:00;;;;;;;13.40;8.80;;;;;;;-148.33;100.00;65374.31;5009950;28;20054;-65
2022/08/26 05:33:28;;;;;;;14.43;9.70;;;;;;;-148.33;100.00;65374.31;5009548;28;20050;-64
2022/08/26 05:35:54;;;;;;;15.77;9.60;;;;;;;-148.33;100.00;65374.31;5009740;28;20046;-68
2022/08/26 05:38:22;;;;;;;14.18;9.43;;;;;;;-148.33;100.00;65374.31;5009422;28;20049;-66
2022/08/26 05:40:50;;;;;;;14.57;9.20;;;;;;;-148.33;100.00;65374.31;5009679;28;20046;-67
2022/08/26 05:43:19;;;;;;;13.47;9.60;;;;;;;-148.33;100.00;65374.31;5009698;28;20505;-63
2022/08/26 05:45:48;;;;;;;15.57;9.68;;;;;;;-148.33;100.00;65374.31;5009707;28;20044;-67
2022/08/26 05:48:19;;;;;;;12.32;9.60;;;;;;;-148.33;100.00;65374.31;5008746;28;20453;-65
2022/08/26 05:50:53;;;;;;;13.15;9.02;;;;;;;-148.33;100.00;65374.31;5007998;28;20410;-63
2022/08/26 05:53:21;;;;;;;13.05;9.38;;;;;;;-148.33;100.00;65374.31;5008897;28;20050;-68
2022/08/26 05:55:52;;;;;;;12.77;8.97;;;;;;;-148.33;100.00;65374.31;5008858;28;20411;-68
2022/08/26 05:58:20;;;;;;;12.40;9.13;;;;;;;-148.33;100.00;65374.31;5008968;28;20046;-67
2022/08/26 06:01:09;;;;;;;15.00;10.57;;;;;;;-148.33;100.00;65374.31;5008850;28;20517;-68
2022/08/26 06:03:40;;;;;;;14.05;9.63;;;;;;;-148.33;100.00;65374.31;5008959;28;20441;-66
2022/08/26 06:06:17;;;;;;;13.45;9.85;;;;;;;-148.33;100.00;65374.31;5008646;28;20048;-64
2022/08/26 06:08:51;;;;;;;15.73;9.40;;;;;;;-148.33;100.00;65374.31;5008926;28;20045;-66
2022/08/26 06:11:24;;;;;;;13.23;9.85;;;;;;;-148.33;100.00;65374.31;5008184;28;20034;-65
2022/08/26 06:13:52;;;;;;;14.77;9.93;;;;;;;-148.33;100.00;65374.31;5008283;28;20613;-63
2022/08/26 06:16:22;;;;;;;13.05;9.70;;;;;;;-148.33;100.00;65374.31;5008777;28;20034;-62
2022/08/26 06:18:51;;;;;;;17.45;9.80;;;;;;;-148.33;100.00;65374.31;5009128;28;20042;-63
2022/08/26 06:21:21;;;;;;;13.10;9.80;;;;;;;-148.33;100.00;65374.31;5008893;28;20057;-68
2022/08/26 06:26:35;;;;;;;13.32;9.27;;;;;;;-148.33;100.00;65374.31;5008822;28;20053;-68
2022/08/26 06:29:03;;;;;;;12.20;9.05;;;;;;;-148.33;100.00;65374.31;5008802;28;20049;-67
2022/08/26 06:31:33;;;;;;;13.98;9.60;;;;;;;-148.33;100.00;65374.31;5026415;28;20110;-63
2022/08/26 06:34:00;;;;;;;14.00;8.90;;;;;;;-148.33;100.00;65374.31;4994108;28;20052;-66
2022/08/26 06:36:29;;;;;;;11.23;8.40;;;;;;;-148.33;100.00;65374.31;4999135;28;20406;-64
2022/08/26 06:38:59;;;;;;;10.82;8.40;;;;;;;-148.33;100.00;65374.31;5008917;28;20403;-64
2022/08/26 06:41:27;;;;;;;10.48;8.23;;;;;;;-148.33;100.00;65374.31;5008650;28;20550;-65
2022/08/26 06:43:53;;;;;;;10.02;7.78;;;;;;;-148.33;100.00;65374.31;5008739;28;20052;-66
2022/08/26 06:46:20;;;;;;;10.47;8.40;;;;;;;-148.33;100.00;65374.31;5008595;28;20046;-64
2022/08/26 06:48:48;;;;;;;9.60;7.45;;;;;;;-148.33;100.00;65374.31;5008502;28;20038;-64
2022/08/26 06:51:19;;;;;;;9.23;7.72;;;;;;;-148.33;100.00;65374.31;5008942;28;20048;-65
2022/08/26 06:53:51;;;;;;;8.35;7.40;;;;;;;-148.33;100.00;65374.31;5007747;28;20274;-65
2022/08/26 06:56:23;;;;;;;9.32;7.15;;;;;;;-148.33;100.00;65374.31;5008837;28;20046;-69
2022/08/26 06:58:50;;;;;;;8.70;7.20;;;;;;;-148.33;100.00;65374.31;5007365;28;20910;-68
2022/08/26 07:01:26;;;;;;;9.48;7.03;;;;;;;-148.33;100.00;65374.31;5008742;28;20108;-65
2022/08/26 07:03:55;;;;;;;10.27;7.28;;;;;;;-148.33;100.00;65374.31;5004954;28;20056;-65
2022/08/26 07:06:24;;;;;;;9.30;7.60;;;;;;;-148.33;100.00;65374.31;5007601;28;20054;-66
2022/08/26 07:08:53;;;;;;;8.98;7.60;;;;;;;-148.33;100.00;65374.31;5008813;28;20042;-68
2022/08/26 07:11:19;;;;;;;11.03;6.90;;;;;;;-148.33;100.00;65374.31;5008433;28;20046;-66
2022/08/26 07:13:46;;;;;;;9.10;7.05;;;;;;;-148.33;100.00;65374.31;5008591;28;20049;-73
2022/08/26 07:16:16;;;;;;;10.27;7.65;;;;;;;-148.33;100.00;65374.31;5008681;28;20072;-66
2022/08/26 07:18:44;;;;;;;11.63;7.53;;;;;;;-148.33;100.00;65374.31;5011181;28;20030;-65
2022/08/26 07:21:14;;;;;;;8.55;7.05;;;;;;;-148.33;100.00;65374.31;5012684;28;20083;-65
2022/08/26 07:23:40;;;;;;;12.57;7.90;;;;;;;-148.33;100.00;65374.31;5012336;28;20628;-66
2022/08/26 07:26:15;;;;;;;9.80;7.13;;;;;;;-148.33;100.00;65374.31;5012463;28;20377;-66
2022/08/26 07:28:42;;;;;;;8.45;6.70;;;;;;;-148.33;100.00;65374.31;5011772;28;20080;-65
2022/08/26 07:31:11;;;;;;;7.82;6.45;;;;;;;-148.33;100.00;65374.31;5012225;28;20042;-68
2022/08/26 07:33:39;;;;;;;8.32;6.38;;;;;;;-148.33;100.00;65374.31;5011637;28;20064;-66
2022/08/26 07:36:08;;;;;;;7.60;6.50;;;;;;;-148.33;100.00;65374.31;5011808;28;20041;-67
2022/08/26 07:38:36;;;;;;;7.65;6.28;;;;;;;-148.33;100.00;65374.31;5011522;28;20052;-68
2022/08/26 07:41:03;;;;;;;7.90;6.38;;;;;;;-148.33;100.00;65374.31;5011747;28;20414;-67
2022/08/26 07:43:30;;;;;;;10.07;6.10;;;;;;;-148.33;100.00;65374.31;5011944;28;20046;-70
2022/08/26 07:45:57;;;;;;;10.57;6.30;;;;;;;-148.33;100.00;65374.31;5011783;28;20036;-67
2022/08/26 07:48:24;;;;;;;9.20;5.80;;;;;;;-148.33;100.00;65374.31;5010487;28;20064;-67
2022/08/26 07:50:52;;;;;;;9.50;5.80;;;;;;;-148.33;100.00;65374.31;5011545;28;20376;-70
2022/08/26 07:53:20;;;;;;;8.02;5.70;;;;;;;-148.33;100.00;65374.31;5011255;28;20418;-64
2022/08/26 07:55:49;;;;;;;6.47;5.55;;;;;;;-148.33;100.00;65374.31;5011729;28;20046;-72
2022/08/26 07:58:18;;;;;;;10.10;6.28;;;;;;;-148.33;100.00;65374.31;5011750;28;20048;-68
2022/08/26 08:00:45;;;;;;;6.83;5.50;;;;;;;-148.33;100.00;65374.31;5010709;28;20737;-65
2022/08/26 08:03:13;;;;;;;9.70;5.57;;;;;;;-148.33;100.00;65374.31;5011523;28;20046;-65
2022/08/26 08:05:41;;;;;;;7.30;5.47;;;;;;;-148.33;100.00;65374.31;5011092;28;20046;-66
2022/08/26 08:08:08;;;;;;;7.60;5.10;;;;;;;-148.33;100.00;65374.31;5011477;28;20466;-67
2022/08/26 08:10:54;;;;;;;7.25;5.10;;;;;;;-148.33;100.00;65374.31;5010327;28;20069;-68
2022/08/26 08:13:22;;;;;;;6.70;4.80;;;;;;;-148.33;100.00;65374.31;5011177;28;20072;-66
2022/08/26 08:15:49;;;;;;;5.57;4.78;;;;;;;-148.33;100.00;65374.31;5010231;28;20470;-75
2022/08/26 08:18:17;;;;;;;5.45;4.43;;;;;;;-148.33;100.00;65374.31;5011554;28;20034;-70
2022/08/26 08:20:46;;;;;;;5.50;4.55;;;;;;;-148.33;100.00;65374.31;5010512;28;20880;-70
2022/08/26 08:23:31;;;;;;;7.22;4.93;;;;;;;-148.33;100.00;65374.31;5011159;28;20049;-66
2022/08/26 08:26:08;;;;;;;5.20;4.70;;;;;;;-148.33;100.00;65374.31;5011435;28;20038;-72
2022/08/26 08:28:36;;;;;;;8.35;4.53;;;;;;;-148.33;100.00;65374.31;5010261;28;20065;-66
2022/08/26 08:31:04;;;;;;;5.60;4.50;;;;;;;-148.33;100.00;65374.31;5010629;28;20172;-66
2022/08/26 08:33:33;;;;;;;5.43;4.80;;;;;;;-148.33;100.00;65374.31;5008668;28;20099;-65
2022/08/26 08:36:00;;;;;;;5.20;4.47;;;;;;;-148.33;100.00;65374.31;5011763;28;20394;-65
2022/08/26 08:38:28;;;;;;;6.53;4.57;;;;;;;-148.33;100.00;65374.31;5010878;28;20054;-65
2022/08/26 08:40:55;;;;;;;7.03;4.80;;;;;;;-148.33;100.00;65374.31;5011234;28;20514;-66
2022/08/26 08:43:46;;;;;;;10.32;5.25;;;;;;;-148.33;100.00;65374.31;5010777;28;20058;-68
2022/08/26 08:46:15;;;;;;;5.82;5.07;;;;;;;-148.33;100.00;65374.31;5011174;28;20040;-65
2022/08/26 08:48:46;;;;;;;7.78;4.60;;;;;;;-148.33;100.00;65374.31;5010504;28;20092;-68
2022/08/26 08:51:34;;;;;;;7.40;4.50;;;;;;;-148.33;100.00;65374.31;5010580;28;20050;-67
2022/08/26 08:54:03;;;;;;;7.05;5.00;;;;;;;-148.33;100.00;65374.31;5009861;28;20072;-66
2022/08/26 08:56:48;;;;;;;8.68;5.32;;;;;;;-148.33;100.00;65374.31;5010379;28;20044;-66
2022/08/26 08:59:17;;;;;;;5.90;5.30;;;;;;;-148.33;100.00;65374.31;5010669;28;20295;-70
2022/08/26 09:02:04;;;;;;;6.65;5.20;;;;;;;-148.33;100.00;65374.31;5009907;28;20749;-68
2022/08/26 09:05:04;;;;;;;6.70;4.90;;;;;;;-148.33;100.00;65374.31;5010382;28;20038;-70
2022/08/26 09:07:43;;;;;;;7.30;5.00;;;;;;;-148.33;100.00;65374.31;5009482;28;20050;-66
2022/08/26 09:10:31;;;;;;;8.20;4.68;;;;;;;-148.33;100.00;65374.31;4997503;28;20046;-69
2022/08/26 09:12:59;;;;;;;5.88;4.53;;;;;;;-148.33;100.00;65374.31;5009198;28;21865;-65
2022/08/26 09:15:46;;;;;;;5.18;4.20;;;;;;;-148.33;100.00;65374.31;5010131;28;20072;-68
2022/08/26 09:18:31;;;;;;;4.80;4.30;;;;;;;-148.33;100.00;65374.31;5010391;28;20038;-66
2022/08/26 09:21:02;;;;;;;5.68;4.70;;;;;;;-148.33;100.00;65374.31;5009068;28;20045;-69
2022/08/26 09:23:31;;;;;;;5.20;4.35;;;;;;;-148.33;100.00;65374.31;5009981;28;20050;-67
2022/08/26 09:26:00;;;;;;;6.00;4.10;;;;;;;-148.33;100.00;65374.31;5009727;28;20046;-67
2022/08/26 09:28:30;;;;;;;5.90;4.30;;;;;;;-148.33;100.00;65374.31;5009805;28;20054;-70
2022/08/26 09:31:09;;;;;;;4.77;4.20;;;;;;;-148.33;100.00;65374.31;5010100;28;20506;-68
2022/08/26 09:33:39;;;;;;;6.22;4.65;;;;;;;-148.33;100.00;65374.31;5008815;28;20116;-70
2022/08/26 09:36:33;;;;;;;6.55;4.45;;;;;;;-148.33;100.00;65374.31;5007778;28;20042;-69
2022/08/26 09:39:35;;;;;;;5.55;4.30;;;;;;;-148.33;100.00;65374.31;5008686;28;20860;-66
2022/08/26 09:42:08;;;;;;;6.68;4.35;;;;;;;-148.33;100.00;65374.31;5008612;28;20766;-66
2022/08/26 09:45:07;;;;;;;4.63;4.00;;;;;;;-148.33;100.00;65374.31;5009492;28;20050;-68
2022/08/26 09:47:56;;;;;;;6.00;4.30;;;;;;;-148.33;100.00;65374.31;4994967;28;20519;-67
2022/08/26 09:50:37;;;;;;;5.18;4.38;;;;;;;-148.33;100.00;65374.31;5009561;28;20375;-67
2022/08/26 09:53:13;;;;;;;6.65;3.80;;;;;;;-148.33;100.00;65374.31;5009721;28;20049;-69
2022/08/26 09:55:46;;;;;;;5.07;3.78;;;;;;;-148.33;100.00;65374.31;5009390;28;20052;-66
2022/08/26 09:58:31;;;;;;;5.97;4.30;;;;;;;-148.33;100.00;65374.31;5009621;28;20061;-69
2022/08/26 10:01:01;;;;;;;4.88;4.00;;;;;;;-148.33;100.00;65374.31;5008803;28;20610;-69
2022/08/26 10:03:34;;;;;;;5.32;4.10;;;;;;;-148.33;100.00;65374.31;5008916;28;20045;-67
2022/08/26 10:06:16;;;;;;;4.95;3.53;;;;;;;-148.33;100.00;65374.31;5007958;28;20052;-66
2022/08/26 10:08:56;;;;;;;6.75;3.90;;;;;;;-148.33;100.00;65374.31;5006983;28;20442;-67
2022/08/26 10:11:47;;;;;;;4.87;3.93;;;;;;;-148.33;100.00;65374.31;5008896;28;20379;-67
2022/08/26 10:14:29;;;;;;;4.30;3.63;;;;;;;-148.33;100.00;65374.31;5009511;28;20076;-70
2022/08/26 10:17:03;;;;;;;5.25;3.70;;;;;;;-148.33;100.00;65374.31;5008365;28;20143;-73
2022/08/26 10:19:46;;;;;;;5.30;3.88;;;;;;;-148.33;100.00;65374.31;5009000;28;20104;-70
2022/08/26 10:22:39;;;;;;;6.70;3.97;;;;;;;-148.33;100.00;65374.31;5008916;28;20057;-67
2022/08/26 10:25:12;;;;;;;5.90;3.60;;;;;;;-148.33;100.00;65374.31;5008712;28;20054;-67
2022/08/26 10:28:03;;;;;;;4.47;3.80;;;;;;;-148.33;100.00;65374.31;5008123;28;20046;-69
2022/08/26 10:31:18;;;;;;;4.90;3.40;;;;;;;-148.33;100.00;65374.31;5008788;28;20081;-67
2022/08/26 10:33:49;;;;;;;5.35;3.10;;;;;;;-148.33;100.00;65374.31;5008018;28;20865;-67
2022/08/26 10:39:35;;;;;;;4.93;3.10;;;;;;;-148.33;100.00;65374.31;5005358;28;20038;-66
2022/08/26 10:42:08;;;;;;;4.78;2.90;;;;;;;-148.33;100.00;65374.31;5008883;28;20046;-66
2022/08/26 10:44:39;;;;;;;3.45;2.65;;;;;;;-148.33;100.00;65374.31;5008348;28;20033;-68
2022/08/26 10:47:18;;;;;;;4.15;3.00;;;;;;;-148.33;100.00;65374.31;5008720;28;20046;-65
2022/08/26 10:49:48;;;;;;;5.45;3.75;;;;;;;-148.33;100.00;65374.31;5008121;28;21501;-68
2022/08/26 10:52:18;;;;;;;5.17;3.40;;;;;;;-148.33;100.00;65374.31;5008065;28;20072;-66
2022/08/26 10:55:25;;;;;;;5.75;3.50;;;;;;;-148.33;100.00;65374.31;5008017;28;20732;-66
2022/08/26 10:58:04;;;;;;;4.78;3.30;;;;;;;-148.33;100.00;65374.31;4998346;28;20903;-69
2022/08/26 11:03:51;;;;;;;3.80;2.85;;;;;;;-148.33;100.00;65374.31;5008473;28;20056;-70
2022/08/26 11:06:24;;;;;;;4.20;3.30;;;;;;;-148.33;100.00;65374.31;5008220;28;20050;-64
2022/08/26 11:08:55;;;;;;;6.72;3.20;;;;;;;-148.33;100.00;65374.31;5007415;28;20046;-69
2022/08/26 11:11:44;;;;;;;5.97;3.60;;;;;;;-148.33;100.00;65374.31;5007641;28;20061;-70
2022/08/26 11:14:18;;;;;;;5.68;3.78;;;;;;;-148.33;100.00;65374.31;5008566;28;20568;-65
2022/08/26 11:16:58;;;;;;;4.32;3.53;;;;;;;-148.33;100.00;65374.31;5007787;28;20469;-69
2022/08/26 11:19:34;;;;;;;5.60;3.70;;;;;;;-148.33;100.00;65374.31;5006826;28;20052;-71
2022/08/26 11:22:36;;;;;;;5.05;3.50;;;;;;;-148.33;100.00;65374.31;5008114;28;20942;-71
2022/08/26 11:25:18;;;;;;;4.60;3.50;;;;;;;-148.33;100.00;65374.31;5008332;28;20046;-66
2022/08/26 11:27:47;;;;;;;5.65;3.67;;;;;;;-148.33;100.00;65374.31;5007611;28;20843;-70
2022/08/26 11:30:14;;;;;;;5.32;3.80;;;;;;;-148.33;100.00;65374.31;5008177;28;20046;-67
2022/08/26 11:32:53;;;;;;;5.67;4.13;;;;;;;-148.33;100.00;65374.31;5007568;28;20716;-67
2022/08/26 11:35:19;;;;;;;6.13;4.57;;;;;;;-148.33;100.00;65374.31;5007594;28;20053;-67
2022/08/26 11:37:47;;;;;;;5.45;4.30;;;;;;;-148.33;100.00;65374.31;5008666;28;20411;-70